sensor_id;sensor_type;location;lat;lon;timestamp;P1;durP1;ratioP1;P2;durP2;ratioP2
70385;SDS011;63206;55.650;37.500;2023-03-01T00:00:44;1.80;;;0.65;;
70385;SDS011;63206;55.650;37.500;2023-03-01T00:03:15;1.60;;;0.57;;
70385;SDS011;63206;55.650;37.500;2023-03-01T00:05:44;2.70;;;0.98;;
70385;SDS011;63206;55.650;37.500;2023-03-01T00:08:11;2.35;;;0.55;;
70385;SDS011;63206;55.650;37.500;2023-03-01T00:10:37;2.78;;;0.80;;
70385;SDS011;63206;55.650;37.500;2023-03-01T00:13:05;2.42;;;0.60;;
70385;SDS011;63206;55.650;37.500;2023-03-01T00:15:37;4.47;;;0.77;;
70385;SDS011;63206;55.650;37.500;2023-03-01T00:18:03;3.33;;;0.85;;
70385;SDS011;63206;55.650;37.500;2023-03-01T00:20:32;3.30;;;0.75;;
70385;SDS011;63206;55.650;37.500;2023-03-01T00:22:58;2.45;;;1.00;;
70385;SDS011;63206;55.650;37.500;2023-03-01T00:25:23;3.10;;;0.60;;
70385;SDS011;63206;55.650;37.500;2023-03-01T00:27:52;1.95;;;0.52;;
70385;SDS011;63206;55.650;37.500;2023-03-01T00:30:24;1.20;;;0.50;;
70385;SDS011;63206;55.650;37.500;2023-03-01T00:32:53;1.25;;;0.70;;
70385;SDS011;63206;55.650;37.500;2023-03-01T00:35:25;0.95;;;0.50;;
70385;SDS011;63206;55.650;37.500;2023-03-01T00:37:51;2.70;;;0.73;;
70385;SDS011;63206;55.650;37.500;2023-03-01T00:40:23;0.90;;;0.50;;
70385;SDS011;63206;55.650;37.500;2023-03-01T00:42:49;4.25;;;0.73;;
70385;SDS011;63206;55.650;37.500;2023-03-01T00:45:19;2.05;;;0.50;;
70385;SDS011;63206;55.650;37.500;2023-03-01T00:47:45;2.83;;;0.70;;
70385;SDS011;63206;55.650;37.500;2023-03-01T00:50:11;3.30;;;0.98;;
70385;SDS011;63206;55.650;37.500;2023-03-01T00:52:40;1.55;;;0.47;;
70385;SDS011;63206;55.650;37.500;2023-03-01T00:55:06;2.83;;;0.80;;
70385;SDS011;63206;55.650;37.500;2023-03-01T00:57:35;3.55;;;0.80;;
70385;SDS011;63206;55.650;37.500;2023-03-01T01:00:06;3.38;;;0.70;;
70385;SDS011;63206;55.650;37.500;2023-03-01T01:02:33;0.93;;;0.38;;
70385;SDS011;63206;55.650;37.500;2023-03-01T01:05:03;1.05;;;0.47;;
70385;SDS011;63206;55.650;37.500;2023-03-01T01:07:29;0.20;;;0.20;;
70385;SDS011;63206;55.650;37.500;2023-03-01T01:10:00;2.47;;;0.65;;
70385;SDS011;63206;55.650;37.500;2023-03-01T01:12:26;2.90;;;0.68;;
70385;SDS011;63206;55.650;37.500;2023-03-01T01:14:55;1.70;;;0.65;;
70385;SDS011;63206;55.650;37.500;2023-03-01T01:17:26;2.13;;;0.57;;
70385;SDS011;63206;55.650;37.500;2023-03-01T01:19:55;1.45;;;0.80;;
70385;SDS011;63206;55.650;37.500;2023-03-01T01:22:21;2.08;;;0.60;;
70385;SDS011;63206;55.650;37.500;2023-03-01T01:24:52;2.53;;;0.57;;
70385;SDS011;63206;55.650;37.500;2023-03-01T01:27:21;2.88;;;0.50;;
70385;SDS011;63206;55.650;37.500;2023-03-01T01:29:47;1.83;;;0.70;;
70385;SDS011;63206;55.650;37.500;2023-03-01T01:32:13;3.15;;;0.77;;
70385;SDS011;63206;55.650;37.500;2023-03-01T01:34:48;2.05;;;0.60;;
70385;SDS011;63206;55.650;37.500;2023-03-01T01:37:20;2.75;;;0.88;;
70385;SDS011;63206;55.650;37.500;2023-03-01T01:39:46;3.65;;;0.68;;
70385;SDS011;63206;55.650;37.500;2023-03-01T01:42:15;2.85;;;0.52;;
70385;SDS011;63206;55.650;37.500;2023-03-01T01:44:47;2.97;;;0.63;;
70385;SDS011;63206;55.650;37.500;2023-03-01T01:47:20;1.00;;;0.57;;
70385;SDS011;63206;55.650;37.500;2023-03-01T01:49:51;0.57;;;0.52;;
70385;SDS011;63206;55.650;37.500;2023-03-01T01:57:24;1.25;;;0.50;;
70385;SDS011;63206;55.650;37.500;2023-03-01T01:59:52;3.30;;;0.95;;
70385;SDS011;63206;55.650;37.500;2023-03-01T02:02:22;3.33;;;1.40;;
70385;SDS011;63206;55.650;37.500;2023-03-01T02:04:52;3.38;;;1.08;;
70385;SDS011;63206;55.650;37.500;2023-03-01T02:07:26;2.83;;;0.68;;
70385;SDS011;63206;55.650;37.500;2023-03-01T02:09:58;2.90;;;0.88;;
70385;SDS011;63206;55.650;37.500;2023-03-01T02:12:31;5.60;;;0.90;;
70385;SDS011;63206;55.650;37.500;2023-03-01T02:15:06;2.75;;;0.80;;
70385;SDS011;63206;55.650;37.500;2023-03-01T02:17:32;1.25;;;0.60;;
70385;SDS011;63206;55.650;37.500;2023-03-01T02:22:52;3.88;;;0.70;;
70385;SDS011;63206;55.650;37.500;2023-03-01T02:30:21;2.53;;;1.10;;
70385;SDS011;63206;55.650;37.500;2023-03-01T02:32:51;4.80;;;1.20;;
70385;SDS011;63206;55.650;37.500;2023-03-01T02:35:26;3.15;;;1.00;;
70385;SDS011;63206;55.650;37.500;2023-03-01T02:37:52;4.20;;;0.98;;
70385;SDS011;63206;55.650;37.500;2023-03-01T02:40:25;3.65;;;1.00;;
70385;SDS011;63206;55.650;37.500;2023-03-01T02:42:54;1.73;;;0.80;;
70385;SDS011;63206;55.650;37.500;2023-03-01T02:45:24;2.92;;;0.77;;
70385;SDS011;63206;55.650;37.500;2023-03-01T02:47:53;1.85;;;0.75;;
70385;SDS011;63206;55.650;37.500;2023-03-01T02:50:44;6.38;;;1.55;;
70385;SDS011;63206;55.650;37.500;2023-03-01T02:53:08;2.30;;;0.90;;
70385;SDS011;63206;55.650;37.500;2023-03-01T02:55:45;2.67;;;1.00;;
70385;SDS011;63206;55.650;37.500;2023-03-01T03:00:42;1.92;;;0.73;;
70385;SDS011;63206;55.650;37.500;2023-03-01T03:03:15;4.35;;;1.20;;
70385;SDS011;63206;55.650;37.500;2023-03-01T03:05:45;2.58;;;1.00;;
70385;SDS011;63206;55.650;37.500;2023-03-01T03:08:11;3.10;;;1.20;;
70385;SDS011;63206;55.650;37.500;2023-03-01T03:10:40;3.47;;;0.90;;
70385;SDS011;63206;55.650;37.500;2023-03-01T03:13:12;1.95;;;1.13;;
70385;SDS011;63206;55.650;37.500;2023-03-01T03:15:39;4.20;;;1.48;;
70385;SDS011;63206;55.650;37.500;2023-03-01T03:18:10;4.10;;;1.10;;
70385;SDS011;63206;55.650;37.500;2023-03-01T03:20:39;3.38;;;0.73;;
70385;SDS011;63206;55.650;37.500;2023-03-01T03:23:05;3.33;;;1.30;;
70385;SDS011;63206;55.650;37.500;2023-03-01T03:25:31;1.38;;;0.82;;
70385;SDS011;63206;55.650;37.500;2023-03-01T03:28:00;2.92;;;1.23;;
70385;SDS011;63206;55.650;37.500;2023-03-01T03:30:30;3.13;;;1.27;;
70385;SDS011;63206;55.650;37.500;2023-03-01T03:33:00;3.08;;;0.98;;
70385;SDS011;63206;55.650;37.500;2023-03-01T03:35:29;1.83;;;0.95;;
70385;SDS011;63206;55.650;37.500;2023-03-01T03:37:56;2.28;;;0.85;;
70385;SDS011;63206;55.650;37.500;2023-03-01T03:42:56;1.95;;;0.93;;
70385;SDS011;63206;55.650;37.500;2023-03-01T03:45:25;2.72;;;1.20;;
70385;SDS011;63206;55.650;37.500;2023-03-01T03:47:51;3.53;;;0.88;;
70385;SDS011;63206;55.650;37.500;2023-03-01T03:50:19;1.98;;;0.70;;
70385;SDS011;63206;55.650;37.500;2023-03-01T03:52:48;3.35;;;1.10;;
70385;SDS011;63206;55.650;37.500;2023-03-01T03:55:15;5.90;;;1.10;;
70385;SDS011;63206;55.650;37.500;2023-03-01T03:57:50;3.17;;;1.10;;
70385;SDS011;63206;55.650;37.500;2023-03-01T04:00:22;4.22;;;1.00;;
70385;SDS011;63206;55.650;37.500;2023-03-01T04:02:55;3.08;;;1.10;;
70385;SDS011;63206;55.650;37.500;2023-03-01T04:05:22;2.35;;;0.80;;
70385;SDS011;63206;55.650;37.500;2023-03-01T04:10:29;2.97;;;0.90;;
70385;SDS011;63206;55.650;37.500;2023-03-01T04:13:01;3.30;;;1.13;;
70385;SDS011;63206;55.650;37.500;2023-03-01T04:15:30;2.63;;;1.10;;
70385;SDS011;63206;55.650;37.500;2023-03-01T04:18:02;2.20;;;0.75;;
70385;SDS011;63206;55.650;37.500;2023-03-01T04:20:32;3.65;;;1.55;;
70385;SDS011;63206;55.650;37.500;2023-03-01T04:23:04;5.38;;;1.73;;
70385;SDS011;63206;55.650;37.500;2023-03-01T04:28:09;3.72;;;1.20;;
70385;SDS011;63206;55.650;37.500;2023-03-01T04:30:35;3.58;;;1.08;;
70385;SDS011;63206;55.650;37.500;2023-03-01T04:33:02;6.78;;;1.63;;
70385;SDS011;63206;55.650;37.500;2023-03-01T04:35:29;2.70;;;1.08;;
70385;SDS011;63206;55.650;37.500;2023-03-01T04:37:55;2.90;;;1.35;;
70385;SDS011;63206;55.650;37.500;2023-03-01T04:40:27;3.55;;;1.40;;
70385;SDS011;63206;55.650;37.500;2023-03-01T04:42:59;2.40;;;0.88;;
70385;SDS011;63206;55.650;37.500;2023-03-01T04:45:39;3.70;;;1.30;;
70385;SDS011;63206;55.650;37.500;2023-03-01T04:48:14;4.30;;;1.30;;
70385;SDS011;63206;55.650;37.500;2023-03-01T04:50:45;2.50;;;1.10;;
70385;SDS011;63206;55.650;37.500;2023-03-01T04:53:14;3.72;;;1.27;;
70385;SDS011;63206;55.650;37.500;2023-03-01T04:55:42;5.70;;;1.10;;
70385;SDS011;63206;55.650;37.500;2023-03-01T04:58:11;1.75;;;1.17;;
70385;SDS011;63206;55.650;37.500;2023-03-01T05:00:46;5.53;;;1.50;;
70385;SDS011;63206;55.650;37.500;2023-03-01T05:03:17;4.93;;;1.40;;
70385;SDS011;63206;55.650;37.500;2023-03-01T05:05:45;2.45;;;1.50;;
70385;SDS011;63206;55.650;37.500;2023-03-01T05:08:12;3.60;;;1.27;;
70385;SDS011;63206;55.650;37.500;2023-03-01T05:10:50;5.50;;;2.10;;
70385;SDS011;63206;55.650;37.500;2023-03-01T05:13:17;6.80;;;2.10;;
70385;SDS011;63206;55.650;37.500;2023-03-01T05:15:56;7.30;;;2.42;;
70385;SDS011;63206;55.650;37.500;2023-03-01T05:18:23;7.78;;;2.55;;
70385;SDS011;63206;55.650;37.500;2023-03-01T05:20:51;8.90;;;3.17;;
70385;SDS011;63206;55.650;37.500;2023-03-01T05:23:26;8.98;;;2.53;;
70385;SDS011;63206;55.650;37.500;2023-03-01T05:25:52;7.82;;;2.78;;
70385;SDS011;63206;55.650;37.500;2023-03-01T05:28:21;6.57;;;2.80;;
70385;SDS011;63206;55.650;37.500;2023-03-01T05:30:47;5.28;;;2.03;;
70385;SDS011;63206;55.650;37.500;2023-03-01T05:33:18;4.93;;;1.92;;
70385;SDS011;63206;55.650;37.500;2023-03-01T05:35:47;8.77;;;2.30;;
70385;SDS011;63206;55.650;37.500;2023-03-01T05:38:14;5.45;;;2.28;;
70385;SDS011;63206;55.650;37.500;2023-03-01T05:40:41;6.57;;;2.03;;
70385;SDS011;63206;55.650;37.500;2023-03-01T05:43:09;7.28;;;2.38;;
70385;SDS011;63206;55.650;37.500;2023-03-01T05:45:39;5.63;;;1.88;;
70385;SDS011;63206;55.650;37.500;2023-03-01T05:48:09;6.07;;;2.00;;
70385;SDS011;63206;55.650;37.500;2023-03-01T05:50:39;7.07;;;1.90;;
70385;SDS011;63206;55.650;37.500;2023-03-01T05:53:09;6.05;;;1.90;;
70385;SDS011;63206;55.650;37.500;2023-03-01T05:55:41;4.75;;;1.52;;
70385;SDS011;63206;55.650;37.500;2023-03-01T05:58:12;7.43;;;1.92;;
70385;SDS011;63206;55.650;37.500;2023-03-01T06:00:45;5.35;;;1.67;;
70385;SDS011;63206;55.650;37.500;2023-03-01T06:03:15;4.10;;;1.88;;
70385;SDS011;63206;55.650;37.500;2023-03-01T06:05:46;5.80;;;2.20;;
70385;SDS011;63206;55.650;37.500;2023-03-01T06:08:18;5.15;;;1.80;;
70385;SDS011;63206;55.650;37.500;2023-03-01T06:10:51;4.07;;;1.33;;
70385;SDS011;63206;55.650;37.500;2023-03-01T06:13:23;7.90;;;1.85;;
70385;SDS011;63206;55.650;37.500;2023-03-01T06:18:18;5.95;;;1.60;;
70385;SDS011;63206;55.650;37.500;2023-03-01T06:20:52;5.88;;;1.67;;
70385;SDS011;63206;55.650;37.500;2023-03-01T06:23:24;3.10;;;1.50;;
70385;SDS011;63206;55.650;37.500;2023-03-01T06:25:50;2.55;;;1.15;;
70385;SDS011;63206;55.650;37.500;2023-03-01T06:28:22;5.63;;;1.73;;
70385;SDS011;63206;55.650;37.500;2023-03-01T06:30:54;4.45;;;1.50;;
70385;SDS011;63206;55.650;37.500;2023-03-01T06:33:23;5.65;;;1.88;;
70385;SDS011;63206;55.650;37.500;2023-03-01T06:35:58;6.22;;;2.05;;
70385;SDS011;63206;55.650;37.500;2023-03-01T06:38:30;4.93;;;1.70;;
70385;SDS011;63206;55.650;37.500;2023-03-01T06:41:01;5.22;;;1.70;;
70385;SDS011;63206;55.650;37.500;2023-03-01T06:43:32;4.05;;;1.70;;
70385;SDS011;63206;55.650;37.500;2023-03-01T06:46:04;5.80;;;1.80;;
70385;SDS011;63206;55.650;37.500;2023-03-01T06:48:37;3.40;;;1.60;;
70385;SDS011;63206;55.650;37.500;2023-03-01T06:51:11;4.45;;;1.73;;
70385;SDS011;63206;55.650;37.500;2023-03-01T06:53:40;6.30;;;2.03;;
70385;SDS011;63206;55.650;37.500;2023-03-01T06:56:12;5.25;;;1.95;;
70385;SDS011;63206;55.650;37.500;2023-03-01T06:58:41;6.40;;;1.92;;
70385;SDS011;63206;55.650;37.500;2023-03-01T07:01:16;5.97;;;1.98;;
70385;SDS011;63206;55.650;37.500;2023-03-01T07:03:42;7.15;;;1.80;;
70385;SDS011;63206;55.650;37.500;2023-03-01T07:06:14;6.55;;;1.70;;
70385;SDS011;63206;55.650;37.500;2023-03-01T07:08:43;6.88;;;1.88;;
70385;SDS011;63206;55.650;37.500;2023-03-01T07:11:15;6.03;;;1.85;;
70385;SDS011;63206;55.650;37.500;2023-03-01T07:13:43;4.93;;;1.70;;
70385;SDS011;63206;55.650;37.500;2023-03-01T07:16:17;3.20;;;1.40;;
70385;SDS011;63206;55.650;37.500;2023-03-01T07:18:50;4.43;;;1.85;;
70385;SDS011;63206;55.650;37.500;2023-03-01T07:21:24;4.82;;;1.80;;
70385;SDS011;63206;55.650;37.500;2023-03-01T07:23:59;3.75;;;1.70;;
70385;SDS011;63206;55.650;37.500;2023-03-01T07:26:37;3.88;;;1.70;;
70385;SDS011;63206;55.650;37.500;2023-03-01T07:29:09;5.03;;;1.55;;
70385;SDS011;63206;55.650;37.500;2023-03-01T07:31:40;4.18;;;1.60;;
70385;SDS011;63206;55.650;37.500;2023-03-01T07:34:08;6.18;;;1.85;;
70385;SDS011;63206;55.650;37.500;2023-03-01T07:36:42;5.28;;;1.65;;
70385;SDS011;63206;55.650;37.500;2023-03-01T07:39:16;6.45;;;1.80;;
70385;SDS011;63206;55.650;37.500;2023-03-01T07:41:49;3.80;;;1.80;;
70385;SDS011;63206;55.650;37.500;2023-03-01T07:44:26;3.55;;;1.73;;
70385;SDS011;63206;55.650;37.500;2023-03-01T07:46:57;5.05;;;1.60;;
70385;SDS011;63206;55.650;37.500;2023-03-01T07:49:29;2.47;;;1.30;;
70385;SDS011;63206;55.650;37.500;2023-03-01T07:51:58;6.38;;;1.67;;
70385;SDS011;63206;55.650;37.500;2023-03-01T07:54:26;3.35;;;1.67;;
70385;SDS011;63206;55.650;37.500;2023-03-01T07:57:01;4.93;;;1.83;;
70385;SDS011;63206;55.650;37.500;2023-03-01T07:59:30;6.20;;;1.63;;
70385;SDS011;63206;55.650;37.500;2023-03-01T08:02:05;8.25;;;2.00;;
70385;SDS011;63206;55.650;37.500;2023-03-01T08:04:38;2.42;;;1.23;;
70385;SDS011;63206;55.650;37.500;2023-03-01T08:07:10;7.00;;;1.90;;
70385;SDS011;63206;55.650;37.500;2023-03-01T08:09:38;4.35;;;1.67;;
70385;SDS011;63206;55.650;37.500;2023-03-01T08:12:09;5.57;;;1.50;;
70385;SDS011;63206;55.650;37.500;2023-03-01T08:14:44;5.38;;;1.63;;
70385;SDS011;63206;55.650;37.500;2023-03-01T08:17:16;6.10;;;1.70;;
70385;SDS011;63206;55.650;37.500;2023-03-01T08:19:45;5.00;;;1.52;;
70385;SDS011;63206;55.650;37.500;2023-03-01T08:22:13;4.72;;;1.42;;
70385;SDS011;63206;55.650;37.500;2023-03-01T08:24:48;3.50;;;1.50;;
70385;SDS011;63206;55.650;37.500;2023-03-01T08:27:17;5.18;;;2.15;;
70385;SDS011;63206;55.650;37.500;2023-03-01T08:29:43;8.35;;;1.58;;
70385;SDS011;63206;55.650;37.500;2023-03-01T08:32:14;4.68;;;1.70;;
70385;SDS011;63206;55.650;37.500;2023-03-01T08:34:48;6.60;;;1.70;;
70385;SDS011;63206;55.650;37.500;2023-03-01T08:37:22;5.68;;;1.50;;
70385;SDS011;63206;55.650;37.500;2023-03-01T08:39:57;4.63;;;1.58;;
70385;SDS011;63206;55.650;37.500;2023-03-01T08:42:28;5.65;;;1.80;;
70385;SDS011;63206;55.650;37.500;2023-03-01T08:45:03;4.80;;;1.55;;
70385;SDS011;63206;55.650;37.500;2023-03-01T08:47:33;3.97;;;1.58;;
70385;SDS011;63206;55.650;37.500;2023-03-01T08:50:05;4.82;;;1.60;;
70385;SDS011;63206;55.650;37.500;2023-03-01T08:52:31;4.13;;;1.80;;
70385;SDS011;63206;55.650;37.500;2023-03-01T08:55:03;5.35;;;1.40;;
70385;SDS011;63206;55.650;37.500;2023-03-01T08:57:33;6.13;;;1.80;;
70385;SDS011;63206;55.650;37.500;2023-03-01T09:00:05;6.07;;;1.60;;
70385;SDS011;63206;55.650;37.500;2023-03-01T09:02:42;4.57;;;1.42;;
70385;SDS011;63206;55.650;37.500;2023-03-01T09:05:20;3.80;;;1.45;;
70385;SDS011;63206;55.650;37.500;2023-03-01T09:07:52;2.85;;;1.10;;
70385;SDS011;63206;55.650;37.500;2023-03-01T09:10:20;3.75;;;1.80;;
70385;SDS011;63206;55.650;37.500;2023-03-01T09:15:26;3.13;;;1.30;;
70385;SDS011;63206;55.650;37.500;2023-03-01T09:17:57;4.38;;;1.63;;
70385;SDS011;63206;55.650;37.500;2023-03-01T09:20:33;5.13;;;1.50;;
70385;SDS011;63206;55.650;37.500;2023-03-01T09:23:04;4.72;;;1.48;;
70385;SDS011;63206;55.650;37.500;2023-03-01T09:25:45;4.75;;;1.67;;
70385;SDS011;63206;55.650;37.500;2023-03-01T09:28:18;5.97;;;1.70;;
70385;SDS011;63206;55.650;37.500;2023-03-01T09:30:53;2.97;;;1.33;;
70385;SDS011;63206;55.650;37.500;2023-03-01T09:33:23;3.70;;;1.35;;
70385;SDS011;63206;55.650;37.500;2023-03-01T09:35:58;2.38;;;1.38;;
70385;SDS011;63206;55.650;37.500;2023-03-01T09:38:27;5.05;;;1.58;;
70385;SDS011;63206;55.650;37.500;2023-03-01T09:41:01;6.53;;;1.60;;
70385;SDS011;63206;55.650;37.500;2023-03-01T09:43:43;5.45;;;1.42;;
70385;SDS011;63206;55.650;37.500;2023-03-01T09:46:18;4.47;;;1.30;;
70385;SDS011;63206;55.650;37.500;2023-03-01T09:51:21;3.60;;;1.50;;
70385;SDS011;63206;55.650;37.500;2023-03-01T09:53:55;4.97;;;1.25;;
70385;SDS011;63206;55.650;37.500;2023-03-01T09:56:41;4.53;;;1.50;;
70385;SDS011;63206;55.650;37.500;2023-03-01T10:10:40;3.42;;;1.27;;
70385;SDS011;63206;55.650;37.500;2023-03-01T10:13:21;4.97;;;1.42;;
70385;SDS011;63206;55.650;37.500;2023-03-01T10:15:50;4.43;;;1.48;;
70385;SDS011;63206;55.650;37.500;2023-03-01T10:18:26;6.47;;;1.85;;
70385;SDS011;63206;55.650;37.500;2023-03-01T10:21:05;4.13;;;1.00;;
70385;SDS011;63206;55.650;37.500;2023-03-01T10:23:39;3.15;;;1.30;;
70385;SDS011;63206;55.650;37.500;2023-03-01T10:26:18;6.63;;;1.65;;
70385;SDS011;63206;55.650;37.500;2023-03-01T10:29:08;3.78;;;1.50;;
70385;SDS011;63206;55.650;37.500;2023-03-01T10:31:48;3.67;;;1.50;;
70385;SDS011;63206;55.650;37.500;2023-03-01T10:34:18;4.50;;;1.50;;
70385;SDS011;63206;55.650;37.500;2023-03-01T10:36:48;3.72;;;1.30;;
70385;SDS011;63206;55.650;37.500;2023-03-01T10:39:18;4.60;;;1.67;;
70385;SDS011;63206;55.650;37.500;2023-03-01T10:42:03;4.05;;;1.20;;
70385;SDS011;63206;55.650;37.500;2023-03-01T10:44:42;3.47;;;1.30;;
70385;SDS011;63206;55.650;37.500;2023-03-01T10:47:23;4.35;;;1.27;;
70385;SDS011;63206;55.650;37.500;2023-03-01T10:49:59;4.40;;;1.35;;
70385;SDS011;63206;55.650;37.500;2023-03-01T10:52:33;2.25;;;1.00;;
70385;SDS011;63206;55.650;37.500;2023-03-01T10:55:03;6.55;;;1.33;;
70385;SDS011;63206;55.650;37.500;2023-03-01T10:57:39;3.15;;;1.65;;
70385;SDS011;63206;55.650;37.500;2023-03-01T11:02:39;2.88;;;1.10;;
70385;SDS011;63206;55.650;37.500;2023-03-01T11:05:19;2.38;;;1.40;;
70385;SDS011;63206;55.650;37.500;2023-03-01T11:08:00;4.50;;;1.63;;
70385;SDS011;63206;55.650;37.500;2023-03-01T11:10:36;3.30;;;1.20;;
70385;SDS011;63206;55.650;37.500;2023-03-01T11:13:18;3.85;;;1.48;;
70385;SDS011;63206;55.650;37.500;2023-03-01T11:18:55;4.00;;;1.65;;
70385;SDS011;63206;55.650;37.500;2023-03-01T11:21:28;2.88;;;1.20;;
70385;SDS011;63206;55.650;37.500;2023-03-01T11:23:58;2.80;;;1.00;;
70385;SDS011;63206;55.650;37.500;2023-03-01T11:26:34;4.28;;;1.33;;
70385;SDS011;63206;55.650;37.500;2023-03-01T11:29:30;4.38;;;1.40;;
70385;SDS011;63206;55.650;37.500;2023-03-01T11:32:04;5.65;;;1.30;;
70385;SDS011;63206;55.650;37.500;2023-03-01T11:37:15;3.40;;;1.30;;
70385;SDS011;63206;55.650;37.500;2023-03-01T11:39:53;6.00;;;1.33;;
70385;SDS011;63206;55.650;37.500;2023-03-01T11:42:30;3.03;;;1.38;;
70385;SDS011;63206;55.650;37.500;2023-03-01T11:45:10;4.30;;;1.40;;
70385;SDS011;63206;55.650;37.500;2023-03-01T11:51:09;3.05;;;1.27;;
70385;SDS011;63206;55.650;37.500;2023-03-01T11:58:43;4.18;;;1.23;;
70385;SDS011;63206;55.650;37.500;2023-03-01T12:01:39;2.95;;;1.13;;
70385;SDS011;63206;55.650;37.500;2023-03-01T12:07:00;4.95;;;0.98;;
70385;SDS011;63206;55.650;37.500;2023-03-01T12:20:06;3.58;;;1.40;;
70385;SDS011;63206;55.650;37.500;2023-03-01T12:25:34;6.03;;;1.58;;
70385;SDS011;63206;55.650;37.500;2023-03-01T12:39:07;3.88;;;1.50;;
70385;SDS011;63206;55.650;37.500;2023-03-01T12:42:12;5.68;;;1.50;;
70385;SDS011;63206;55.650;37.500;2023-03-01T12:44:44;1.83;;;0.93;;
70385;SDS011;63206;55.650;37.500;2023-03-01T12:47:21;2.72;;;0.80;;
70385;SDS011;63206;55.650;37.500;2023-03-01T12:49:57;3.95;;;0.95;;
70385;SDS011;63206;55.650;37.500;2023-03-01T12:54:58;3.83;;;1.17;;
70385;SDS011;63206;55.650;37.500;2023-03-01T12:57:42;2.38;;;1.10;;
70385;SDS011;63206;55.650;37.500;2023-03-01T13:02:50;2.10;;;0.95;;
70385;SDS011;63206;55.650;37.500;2023-03-01T13:07:55;4.07;;;0.85;;
70385;SDS011;63206;55.650;37.500;2023-03-01T13:10:34;3.60;;;1.13;;
70385;SDS011;63206;55.650;37.500;2023-03-01T13:15:35;4.03;;;0.93;;
70385;SDS011;63206;55.650;37.500;2023-03-01T13:23:12;4.25;;;1.50;;
70385;SDS011;63206;55.650;37.500;2023-03-01T13:31:04;1.90;;;0.77;;
70385;SDS011;63206;55.650;37.500;2023-03-01T13:33:38;3.42;;;0.98;;
70385;SDS011;63206;55.650;37.500;2023-03-01T13:36:09;4.30;;;1.20;;
70385;SDS011;63206;55.650;37.500;2023-03-01T13:41:15;8.13;;;1.60;;
70385;SDS011;63206;55.650;37.500;2023-03-01T13:43:46;5.53;;;1.40;;
70385;SDS011;63206;55.650;37.500;2023-03-01T13:46:17;8.95;;;1.45;;
70385;SDS011;63206;55.650;37.500;2023-03-01T13:48:50;1.25;;;0.98;;
70385;SDS011;63206;55.650;37.500;2023-03-01T13:51:25;2.65;;;0.90;;
70385;SDS011;63206;55.650;37.500;2023-03-01T13:54:00;1.70;;;0.95;;
70385;SDS011;63206;55.650;37.500;2023-03-01T13:56:33;3.00;;;1.10;;
70385;SDS011;63206;55.650;37.500;2023-03-01T13:59:05;6.15;;;1.50;;
70385;SDS011;63206;55.650;37.500;2023-03-01T14:01:35;2.35;;;0.85;;
70385;SDS011;63206;55.650;37.500;2023-03-01T14:04:02;2.47;;;0.90;;
70385;SDS011;63206;55.650;37.500;2023-03-01T14:06:34;1.88;;;1.20;;
70385;SDS011;63206;55.650;37.500;2023-03-01T14:17:01;1.35;;;1.00;;
70385;SDS011;63206;55.650;37.500;2023-03-01T14:19:34;3.67;;;1.40;;
70385;SDS011;63206;55.650;37.500;2023-03-01T14:24:44;2.47;;;0.88;;
70385;SDS011;63206;55.650;37.500;2023-03-01T14:27:17;2.60;;;1.20;;
70385;SDS011;63206;55.650;37.500;2023-03-01T14:30:03;2.75;;;1.17;;
70385;SDS011;63206;55.650;37.500;2023-03-01T14:32:32;4.63;;;1.40;;
70385;SDS011;63206;55.650;37.500;2023-03-01T14:35:21;2.60;;;1.05;;
70385;SDS011;63206;55.650;37.500;2023-03-01T14:37:47;2.40;;;1.38;;
70385;SDS011;63206;55.650;37.500;2023-03-01T14:42:53;3.83;;;1.35;;
70385;SDS011;63206;55.650;37.500;2023-03-01T14:45:20;4.10;;;1.15;;
70385;SDS011;63206;55.650;37.500;2023-03-01T14:47:47;1.92;;;1.08;;
70385;SDS011;63206;55.650;37.500;2023-03-01T14:50:22;2.30;;;1.48;;
70385;SDS011;63206;55.650;37.500;2023-03-01T14:52:49;3.65;;;1.33;;
70385;SDS011;63206;55.650;37.500;2023-03-01T14:55:20;3.28;;;1.50;;
70385;SDS011;63206;55.650;37.500;2023-03-01T14:57:47;3.30;;;1.60;;
70385;SDS011;63206;55.650;37.500;2023-03-01T15:00:18;4.22;;;1.45;;
70385;SDS011;63206;55.650;37.500;2023-03-01T15:02:47;4.95;;;1.80;;
70385;SDS011;63206;55.650;37.500;2023-03-01T15:05:13;3.70;;;1.50;;
70385;SDS011;63206;55.650;37.500;2023-03-01T15:07:43;2.72;;;1.10;;
70385;SDS011;63206;55.650;37.500;2023-03-01T15:10:22;4.63;;;1.33;;
70385;SDS011;63206;55.650;37.500;2023-03-01T15:12:49;2.60;;;1.60;;
70385;SDS011;63206;55.650;37.500;2023-03-01T15:17:56;6.53;;;1.67;;
70385;SDS011;63206;55.650;37.500;2023-03-01T15:20:24;5.65;;;1.50;;
70385;SDS011;63206;55.650;37.500;2023-03-01T15:22:52;3.20;;;1.50;;
70385;SDS011;63206;55.650;37.500;2023-03-01T15:25:19;2.13;;;1.15;;
70385;SDS011;63206;55.650;37.500;2023-03-01T15:27:49;4.28;;;1.58;;
70385;SDS011;63206;55.650;37.500;2023-03-01T15:30:18;3.03;;;1.50;;
70385;SDS011;63206;55.650;37.500;2023-03-01T15:33:15;3.83;;;1.50;;
70385;SDS011;63206;55.650;37.500;2023-03-01T15:35:45;6.13;;;1.45;;
70385;SDS011;63206;55.650;37.500;2023-03-01T15:41:25;2.13;;;0.95;;
70385;SDS011;63206;55.650;37.500;2023-03-01T15:43:57;3.47;;;1.38;;
70385;SDS011;63206;55.650;37.500;2023-03-01T15:46:32;3.88;;;1.42;;
70385;SDS011;63206;55.650;37.500;2023-03-01T15:49:04;5.18;;;1.30;;
70385;SDS011;63206;55.650;37.500;2023-03-01T15:51:35;3.88;;;1.08;;
70385;SDS011;63206;55.650;37.500;2023-03-01T15:54:03;2.70;;;1.08;;
70385;SDS011;63206;55.650;37.500;2023-03-01T15:56:32;3.22;;;1.23;;
70385;SDS011;63206;55.650;37.500;2023-03-01T15:59:03;5.05;;;1.60;;
70385;SDS011;63206;55.650;37.500;2023-03-01T16:01:33;3.22;;;1.23;;
70385;SDS011;63206;55.650;37.500;2023-03-01T16:04:00;1.55;;;0.98;;
70385;SDS011;63206;55.650;37.500;2023-03-01T16:06:26;2.03;;;0.90;;
70385;SDS011;63206;55.650;37.500;2023-03-01T16:08:57;2.45;;;0.98;;
70385;SDS011;63206;55.650;37.500;2023-03-01T16:11:26;4.88;;;1.30;;
70385;SDS011;63206;55.650;37.500;2023-03-01T16:14:00;3.60;;;1.40;;
70385;SDS011;63206;55.650;37.500;2023-03-01T16:19:03;4.63;;;1.10;;
70385;SDS011;63206;55.650;37.500;2023-03-01T16:21:32;3.38;;;0.90;;
70385;SDS011;63206;55.650;37.500;2023-03-01T16:24:03;1.55;;;0.60;;
70385;SDS011;63206;55.650;37.500;2023-03-01T16:26:32;3.17;;;1.30;;
70385;SDS011;63206;55.650;37.500;2023-03-01T16:29:01;5.55;;;1.27;;
70385;SDS011;63206;55.650;37.500;2023-03-01T16:31:30;3.33;;;1.13;;
70385;SDS011;63206;55.650;37.500;2023-03-01T16:33:56;2.13;;;1.00;;
70385;SDS011;63206;55.650;37.500;2023-03-01T16:36:31;4.55;;;1.10;;
70385;SDS011;63206;55.650;37.500;2023-03-01T16:38:59;4.15;;;1.10;;
70385;SDS011;63206;55.650;37.500;2023-03-01T16:41:28;5.32;;;1.45;;
70385;SDS011;63206;55.650;37.500;2023-03-01T16:43:57;2.55;;;1.10;;
70385;SDS011;63206;55.650;37.500;2023-03-01T16:46:24;4.30;;;1.13;;
70385;SDS011;63206;55.650;37.500;2023-03-01T16:48:51;3.25;;;1.38;;
70385;SDS011;63206;55.650;37.500;2023-03-01T16:51:17;2.17;;;0.88;;
70385;SDS011;63206;55.650;37.500;2023-03-01T16:53:43;1.13;;;0.60;;
70385;SDS011;63206;55.650;37.500;2023-03-01T16:56:09;3.13;;;1.20;;
70385;SDS011;63206;55.650;37.500;2023-03-01T16:58:36;5.32;;;1.25;;
70385;SDS011;63206;55.650;37.500;2023-03-01T17:01:03;3.05;;;1.05;;
70385;SDS011;63206;55.650;37.500;2023-03-01T17:03:32;2.85;;;1.08;;
70385;SDS011;63206;55.650;37.500;2023-03-01T17:06:02;2.70;;;1.20;;
70385;SDS011;63206;55.650;37.500;2023-03-01T17:08:28;5.07;;;1.45;;